createdAt,value
2022-09-05T00:02:48.826Z,20.80
2022-09-05T00:06:01.808Z,20.80
2022-09-05T00:08:42.110Z,20.80
2022-09-05T00:11:40.834Z,20.80
2022-09-05T00:14:15.041Z,20.90
2022-09-05T00:17:11.505Z,20.80
2022-09-05T00:24:18.417Z,20.80
2022-09-05T00:24:24.866Z,20.80
2022-09-05T00:25:58.136Z,20.80
2022-09-05T00:28:37.923Z,20.70
2022-09-05T00:31:54.175Z,20.70
2022-09-05T00:34:25.573Z,20.70
2022-09-05T00:37:04.552Z,20.70
2022-09-05T00:39:36.239Z,20.70
2022-09-05T00:42:11.071Z,20.60
2022-09-05T00:44:51.082Z,20.60
2022-09-05T00:47:33.514Z,20.60
2022-09-05T00:50:07.836Z,20.50
2022-09-05T00:52:43.080Z,20.50
2022-09-05T00:55:26.782Z,20.40
2022-09-05T00:58:12.255Z,20.40
2022-09-05T01:00:51.414Z,20.40
2022-09-05T01:03:37.768Z,20.40
2022-09-05T01:06:34.188Z,20.30
2022-09-05T01:09:28.430Z,20.30
2022-09-05T01:12:15.191Z,20.30
2022-09-05T01:15:11.601Z,20.30
2022-09-05T01:17:51.947Z,20.20
2022-09-05T01:20:51.943Z,20.30
2022-09-05T01:23:43.914Z,20.20
2022-09-05T01:27:01.057Z,20.20
2022-09-05T01:29:41.119Z,20.20
2022-09-05T01:32:28.336Z,20.10
2022-09-05T01:35:03.916Z,20.10
2022-09-05T01:37:39.552Z,20.10
2022-09-05T01:40:24.898Z,20.00
2022-09-05T01:43:06.556Z,20.00
2022-09-05T01:45:50.748Z,20.00
2022-09-05T01:48:30.820Z,20.00
2022-09-05T01:51:28.837Z,19.90
2022-09-05T01:54:19.855Z,19.90
2022-09-05T01:57:09.351Z,19.90
2022-09-05T01:59:47.255Z,19.80
2022-09-05T02:02:27.879Z,19.80
2022-09-05T02:05:20.681Z,19.80
2022-09-05T02:08:35.215Z,19.70
2022-09-05T02:11:06.228Z,19.70
2022-09-05T02:13:57.293Z,19.70
2022-09-05T02:16:36.190Z,19.60
2022-09-05T02:19:16.890Z,19.60
2022-09-05T02:21:55.972Z,19.60
2022-09-05T02:24:28.584Z,19.50
2022-09-05T02:27:31.800Z,19.50
2022-09-05T02:30:13.794Z,19.50
2022-09-05T02:32:52.690Z,19.40
2022-09-05T02:35:31.323Z,19.40
2022-09-05T02:40:07.831Z,19.40
2022-09-05T02:45:06.536Z,19.40
2022-09-05T02:45:07.530Z,19.40
2022-09-05T02:46:54.185Z,19.40
2022-09-05T02:52:40.846Z,19.40
2022-09-05T02:57:42.129Z,19.30
2022-09-05T02:57:46.091Z,19.40
2022-09-05T02:58:19.946Z,19.30
2022-09-05T03:01:01.268Z,19.30
2022-09-05T03:03:36.688Z,19.30
2022-09-05T03:06:14.951Z,19.20
2022-09-05T03:09:17.074Z,19.20
2022-09-05T03:12:29.465Z,19.10
2022-09-05T03:15:41.881Z,19.10
2022-09-05T03:18:56.043Z,19.10
2022-09-05T03:22:00.514Z,19.10
2022-09-05T03:24:58.815Z,19.10
2022-09-05T03:28:06.167Z,19.00
2022-09-05T03:30:54.128Z,19.00
2022-09-05T03:33:38.358Z,18.90
2022-09-05T03:36:26.458Z,18.90
2022-09-05T03:39:28.843Z,18.90
2022-09-05T03:42:14.763Z,18.80
2022-09-05T03:44:55.386Z,18.80
2022-09-05T03:47:53.375Z,18.90
2022-09-05T03:57:11.362Z,18.80
2022-09-05T03:57:11.649Z,18.80
2022-09-05T03:57:42.667Z,18.80
2022-09-05T04:00:21.613Z,18.80
2022-09-05T04:08:06.642Z,18.80
2022-09-05T04:08:13.702Z,18.80
2022-09-05T04:09:04.190Z,18.70
2022-09-05T04:11:37.702Z,18.80
2022-09-05T04:14:10.795Z,18.70
2022-09-05T04:16:51.071Z,18.70
2022-09-05T04:19:27.880Z,18.70
2022-09-05T04:22:04.206Z,18.70
2022-09-05T04:24:43.278Z,18.70
2022-09-05T04:27:36.282Z,18.70
2022-09-05T04:30:38.007Z,18.70
2022-09-05T04:33:16.784Z,18.70
2022-09-05T04:35:57.796Z,18.70
2022-09-05T04:38:42.140Z,18.70
2022-09-05T04:41:13.234Z,18.70
2022-09-05T04:43:46.782Z,18.60
2022-09-05T04:46:25.781Z,18.60
2022-09-05T04:49:01.393Z,18.60
2022-09-05T04:52:01.253Z,18.60
2022-09-05T04:54:36.584Z,18.60
2022-09-05T04:57:16.926Z,18.60
2022-09-05T05:04:59.492Z,18.50
2022-09-05T05:06:12.239Z,18.50
2022-09-05T05:06:16.461Z,18.50
2022-09-05T05:08:41.583Z,18.50
2022-09-05T05:17:56.265Z,18.50
2022-09-05T05:18:14.523Z,18.50
2022-09-05T05:18:14.995Z,18.50
2022-09-05T05:20:40.784Z,18.50
2022-09-05T05:22:52.552Z,18.50
2022-09-05T05:25:20.806Z,18.50
2022-09-05T05:28:10.299Z,18.50
2022-09-05T05:30:51.315Z,18.50
2022-09-05T05:33:25.961Z,18.60
2022-09-05T05:35:58.139Z,18.60
2022-09-05T05:38:41.028Z,18.70
2022-09-05T05:41:19.562Z,18.70
2022-09-05T05:43:49.709Z,18.70
2022-09-05T05:46:30.168Z,18.80
2022-09-05T05:49:14.906Z,18.80
2022-09-05T05:52:02.124Z,18.90
2022-09-05T05:54:37.580Z,18.90
2022-09-05T05:57:37.384Z,18.90
2022-09-05T06:00:24.518Z,19.00
2022-09-05T06:03:29.444Z,19.00
2022-09-05T06:06:09.694Z,19.10
2022-09-05T06:14:46.633Z,19.10
2022-09-05T06:15:05.892Z,19.10
2022-09-05T06:15:48.157Z,19.20
2022-09-05T06:19:10.706Z,19.30
2022-09-05T06:22:09.154Z,19.40
2022-09-05T06:25:34.754Z,19.50
2022-09-05T06:28:18.853Z,19.60
2022-09-05T06:30:57.269Z,19.70
2022-09-05T06:33:58.004Z,19.70
2022-09-05T06:36:48.791Z,19.80
2022-09-05T06:39:26.928Z,19.90
2022-09-05T06:42:40.644Z,20.00
2022-09-05T06:45:41.626Z,20.10
2022-09-05T06:48:23.881Z,20.20
2022-09-05T06:51:46.286Z,20.30
2022-09-05T06:54:32.621Z,20.50
2022-09-05T06:57:30.715Z,20.60
2022-09-05T07:00:17.578Z,20.70
2022-09-05T07:03:07.886Z,20.80
2022-09-05T07:05:45.289Z,20.90
2022-09-05T07:08:36.732Z,21.00
2022-09-05T07:11:16.743Z,21.10
2022-09-05T07:13:59.304Z,21.20
2022-09-05T07:16:39.375Z,21.30
2022-09-05T07:19:27.032Z,21.40
2022-09-05T07:22:46.143Z,21.50
2022-09-05T07:25:18.115Z,21.60
2022-09-05T07:28:26.116Z,21.70
2022-09-05T07:30:51.576Z,21.90
2022-09-05T07:33:21.875Z,22.00
2022-09-05T07:35:51.959Z,22.10
2022-09-05T07:38:30.114Z,22.30
2022-09-05T07:41:21.202Z,22.50
2022-09-05T07:43:55.093Z,22.60
2022-09-05T07:46:27.819Z,22.70
2022-09-05T07:48:59.668Z,22.90
2022-09-05T07:56:51.386Z,23.20
2022-09-05T07:56:54.442Z,23.00
2022-09-05T07:57:30.815Z,23.30
2022-09-05T08:00:07.366Z,23.40
2022-09-05T08:02:54.956Z,23.50
2022-09-05T08:05:34.558Z,23.60
2022-09-05T08:08:08.816Z,23.70
2022-09-05T08:11:22.395Z,23.80
2022-09-05T08:14:02.361Z,23.90
2022-09-05T08:16:44.711Z,24.10
2022-09-05T08:19:37.982Z,24.20
2022-09-05T08:22:08.844Z,24.30
2022-09-05T08:24:40.667Z,24.40
2022-09-05T08:27:16.636Z,24.50
2022-09-05T08:29:51.310Z,24.60
2022-09-05T08:32:46.268Z,24.70
2022-09-05T08:35:23.344Z,24.80
2022-09-05T08:37:53.940Z,24.90
2022-09-05T08:40:29.992Z,25.00
2022-09-05T08:46:36.545Z,25.10
2022-09-05T08:46:47.739Z,25.20
2022-09-05T08:49:16.332Z,25.30
2022-09-05T08:51:57.072Z,25.40
2022-09-05T08:54:33.660Z,25.60
2022-09-05T08:57:09.495Z,25.70
2022-09-05T09:00:18.472Z,25.80
2022-09-05T09:03:04.982Z,25.80
2022-09-05T09:06:13.210Z,25.90
2022-09-05T09:09:05.775Z,26.10
2022-09-05T09:11:38.557Z,26.10
2022-09-05T09:14:36.751Z,26.20
2022-09-05T09:17:30.643Z,26.30
2022-09-05T09:20:23.205Z,26.40
2022-09-05T09:22:59.140Z,26.50
2022-09-05T09:25:33.871Z,26.60
2022-09-05T09:28:50.626Z,26.70
2022-09-05T09:31:38.364Z,26.70
2022-09-05T09:34:33.116Z,26.80
2022-09-05T09:37:46.601Z,26.90
2022-09-05T09:40:36.899Z,27.00
2022-09-05T09:43:09.587Z,27.10
2022-09-05T09:45:54.275Z,27.20
2022-09-05T09:48:58.739Z,27.30
2022-09-05T09:51:56.495Z,27.30
2022-09-05T09:54:58.151Z,27.40
2022-09-05T09:57:46.065Z,27.50
2022-09-05T10:00:21.450Z,27.60
2022-09-05T10:05:47.595Z,27.70
2022-09-05T10:10:44.733Z,27.80
2022-09-05T10:10:47.947Z,27.70
2022-09-05T10:12:52.080Z,27.90
2022-09-05T10:15:34.825Z,28.00
2022-09-05T10:18:24.308Z,28.10
2022-09-05T10:21:17.928Z,28.10
2022-09-05T10:24:36.424Z,28.20
2022-09-05T10:27:35.364Z,28.30
2022-09-05T10:30:16.955Z,28.50
2022-09-05T10:35:13.751Z,28.60
2022-09-05T10:36:21.939Z,28.60
2022-09-05T10:39:02.487Z,28.70
2022-09-05T10:41:43.630Z,28.80
2022-09-05T10:44:15.069Z,28.80
2022-09-05T10:46:53.155Z,28.90
2022-09-05T10:49:30.033Z,28.90
2022-09-05T10:52:04.065Z,28.90
2022-09-05T10:55:16.190Z,28.90
2022-09-05T10:57:57.960Z,28.90
2022-09-05T11:02:24.704Z,28.90
2022-09-05T11:03:50.299Z,29.00
2022-09-05T11:06:24.687Z,29.00
2022-09-05T11:09:00.945Z,29.00
2022-09-05T11:11:34.530Z,29.00
2022-09-05T11:14:10.827Z,29.00
2022-09-05T11:17:00.180Z,29.00
2022-09-05T11:19:38.906Z,29.00
2022-09-05T11:22:22.756Z,29.00
2022-09-05T11:24:56.204Z,29.10
2022-09-05T11:27:31.701Z,29.10
2022-09-05T11:30:05.387Z,29.10
2022-09-05T11:38:45.575Z,29.10
2022-09-05T11:40:02.603Z,29.10
2022-09-05T11:40:10.359Z,29.10
2022-09-05T11:42:47.433Z,29.20
2022-09-05T11:45:52.971Z,29.20
2022-09-05T11:48:37.144Z,29.20
2022-09-05T11:51:35.112Z,29.30
2022-09-05T11:54:36.428Z,29.30
2022-09-05T11:57:34.122Z,29.30
2022-09-05T12:00:32.974Z,29.30
2022-09-05T12:03:59.512Z,29.30
2022-09-05T12:07:25.232Z,29.40
2022-09-05T12:10:47.151Z,29.40
2022-09-05T12:13:26.449Z,29.50
2022-09-05T12:16:07.318Z,29.50
2022-09-05T12:18:44.580Z,29.50
2022-09-05T12:21:27.430Z,29.50
2022-09-05T12:25:16.706Z,29.50
2022-09-05T12:27:43.885Z,29.50
2022-09-05T12:29:59.823Z,29.50
2022-09-05T12:34:45.005Z,29.50
2022-09-05T12:36:11.792Z,29.40
2022-09-05T12:40:54.275Z,29.40
2022-09-05T12:42:10.154Z,29.40
2022-09-05T12:44:51.533Z,29.40
2022-09-05T12:47:23.128Z,29.30
2022-09-05T12:50:03.053Z,29.30
2022-09-05T12:52:44.479Z,29.30
2022-09-05T12:55:24.786Z,29.30
2022-09-05T13:02:59.294Z,29.30
2022-09-05T13:03:08.949Z,29.30
2022-09-05T13:04:16.132Z,29.40
2022-09-05T13:06:40.882Z,29.40
2022-09-05T13:09:16.637Z,29.40
2022-09-05T13:14:50.555Z,29.40
2022-09-05T13:15:18.329Z,29.40
2022-09-05T13:17:51.370Z,29.40
2022-09-05T13:20:25.828Z,29.40
2022-09-05T13:22:54.873Z,29.40
2022-09-05T13:25:27.109Z,29.40
2022-09-05T13:28:02.058Z,29.40
2022-09-05T13:34:23.299Z,29.40
2022-09-05T13:37:59.036Z,29.40
2022-09-05T13:38:02.195Z,29.40
2022-09-05T13:39:15.280Z,29.40
2022-09-05T13:41:48.756Z,29.40
2022-09-05T13:44:26.431Z,29.40
2022-09-05T13:47:02.077Z,29.40
2022-09-05T13:49:43.376Z,29.30
2022-09-05T13:52:35.693Z,29.30
2022-09-05T13:55:22.691Z,29.30
2022-09-05T13:57:56.614Z,29.30
2022-09-05T14:01:19.622Z,29.30
2022-09-05T14:07:52.950Z,29.30
2022-09-05T14:11:03.292Z,29.30
2022-09-05T14:13:41.786Z,29.30
2022-09-05T14:16:17.928Z,29.30
2022-09-05T14:19:02.952Z,29.30
2022-09-05T14:21:37.553Z,29.40
2022-09-05T14:24:13.806Z,29.40
2022-09-05T14:26:47.122Z,29.40
2022-09-05T14:29:20.304Z,29.50
2022-09-05T14:37:36.803Z,29.50
2022-09-05T14:37:53.651Z,29.50
2022-09-05T14:38:15.686Z,29.60
2022-09-05T14:41:28.281Z,29.50
2022-09-05T14:44:23.335Z,29.60
2022-09-05T14:47:32.312Z,29.60
2022-09-05T14:50:30.101Z,29.60
2022-09-05T14:57:18.933Z,29.60
2022-09-05T15:02:54.384Z,29.60
2022-09-05T15:02:54.724Z,29.60
2022-09-05T15:05:21.305Z,29.60
2022-09-05T15:07:51.198Z,29.70
2022-09-05T15:12:16.500Z,29.60
2022-09-05T15:13:26.073Z,29.60
2022-09-05T15:16:02.992Z,29.70
2022-09-05T15:18:33.736Z,29.60
2022-09-05T15:21:33.217Z,29.60
2022-09-05T15:24:14.807Z,29.60
2022-09-05T15:26:52.788Z,29.60
2022-09-05T15:29:25.818Z,29.60
2022-09-05T15:32:10.153Z,29.50
2022-09-05T15:34:39.253Z,29.50
2022-09-05T15:37:24.100Z,29.50
2022-09-05T15:40:03.015Z,29.40
2022-09-05T15:42:34.235Z,29.40
2022-09-05T15:45:10.560Z,29.40
2022-09-05T15:47:45.282Z,29.30
2022-09-05T15:50:22.134Z,29.30
2022-09-05T15:52:55.676Z,29.20
2022-09-05T15:55:26.487Z,29.20
2022-09-05T15:57:58.139Z,29.20
2022-09-05T16:00:42.395Z,29.10
2022-09-05T16:05:46.352Z,29.10
2022-09-05T16:10:38.139Z,29.10
2022-09-05T16:10:39.840Z,29.10
2022-09-05T16:15:55.218Z,29.20
2022-09-05T16:23:15.774Z,29.20
2022-09-05T16:23:33.822Z,29.30
2022-09-05T16:23:40.394Z,29.30
2022-09-05T16:26:14.163Z,29.30
2022-09-05T16:28:50.490Z,29.30
2022-09-05T16:31:23.098Z,29.30
2022-09-05T16:33:53.306Z,29.30
2022-09-05T16:36:27.157Z,29.30
2022-09-05T16:38:59.787Z,29.30
2022-09-05T16:41:38.372Z,29.30
2022-09-05T16:44:23.486Z,29.30
2022-09-05T16:47:08.748Z,29.30
2022-09-05T16:49:43.704Z,29.20
2022-09-05T16:52:17.802Z,29.30
2022-09-05T16:54:50.641Z,29.20
2022-09-05T16:57:23.848Z,29.20
2022-09-05T16:59:52.441Z,29.10
2022-09-05T17:02:28.851Z,29.10
2022-09-05T17:05:11.325Z,29.10
2022-09-05T17:08:02.355Z,29.10
2022-09-05T17:10:35.065Z,29.00
2022-09-05T17:13:04.771Z,29.00
2022-09-05T17:15:36.458Z,28.90
2022-09-05T17:18:20.412Z,28.90
2022-09-05T17:20:55.512Z,28.80
2022-09-05T17:29:23.872Z,28.80
2022-09-05T17:29:27.403Z,28.70
2022-09-05T17:31:20.849Z,28.60
2022-09-05T17:32:52.057Z,28.60
2022-09-05T17:38:48.426Z,28.50
2022-09-05T17:41:48.432Z,28.40
2022-09-05T17:44:21.779Z,28.30
2022-09-05T17:47:07.387Z,28.20
2022-09-05T17:49:45.242Z,28.20
2022-09-05T17:52:24.164Z,28.10
2022-09-05T17:54:56.050Z,28.00
2022-09-05T17:57:42.207Z,28.00
2022-09-05T18:00:44.518Z,27.80
2022-09-05T18:03:12.987Z,27.80
2022-09-05T18:06:03.918Z,27.70
2022-09-05T18:08:52.997Z,27.60
2022-09-05T18:12:03.526Z,27.50
2022-09-05T18:14:48.771Z,27.40
2022-09-05T18:17:54.658Z,27.40
2022-09-05T18:20:28.325Z,27.30
2022-09-05T18:26:21.209Z,27.10
2022-09-05T18:29:05.909Z,27.00
2022-09-05T18:32:02.992Z,26.90
2022-09-05T18:35:08.713Z,26.90
2022-09-05T18:38:51.379Z,26.80
2022-09-05T18:41:19.375Z,26.70
2022-09-05T18:44:13.000Z,26.60
2022-09-05T18:46:47.700Z,26.50
2022-09-05T18:50:04.237Z,26.40
2022-09-05T18:52:17.075Z,26.40
2022-09-05T18:56:09.707Z,26.30
2022-09-05T18:57:49.689Z,26.30
2022-09-05T19:00:29.827Z,26.20
2022-09-05T19:03:17.980Z,26.20
2022-09-05T19:05:50.831Z,26.10
2022-09-05T19:08:28.831Z,26.10
2022-09-05T19:11:01.734Z,26.00
2022-09-05T19:13:50.347Z,25.90
2022-09-05T19:16:43.494Z,25.80
2022-09-05T19:19:24.275Z,25.80
2022-09-05T19:22:13.271Z,25.80
2022-09-05T19:24:46.053Z,25.70
2022-09-05T19:28:47.183Z,25.70
2022-09-05T19:36:49.646Z,25.50
2022-09-05T19:36:56.709Z,25.60
2022-09-05T19:37:09.251Z,25.50
2022-09-05T19:41:16.345Z,25.40
2022-09-05T19:47:30.412Z,25.30
2022-09-05T19:47:47.154Z,25.30
2022-09-05T19:47:56.266Z,25.20
2022-09-05T19:50:20.939Z,25.10
2022-09-05T19:52:53.359Z,25.10
2022-09-05T19:55:24.038Z,25.00
2022-09-05T19:58:05.226Z,24.90
2022-09-05T20:00:47.448Z,24.90
2022-09-05T20:03:28.897Z,24.80
2022-09-05T20:06:29.402Z,24.80
2022-09-05T20:09:14.243Z,24.70
2022-09-05T20:11:47.732Z,24.70
2022-09-05T20:14:24.704Z,24.70
2022-09-05T20:16:55.921Z,24.60
2022-09-05T20:19:29.112Z,24.60
2022-09-05T20:21:59.757Z,24.60
2022-09-05T20:24:44.267Z,24.50
2022-09-05T20:27:16.746Z,24.50
2022-09-05T20:29:54.884Z,24.50
2022-09-05T20:32:39.555Z,24.50
2022-09-05T20:40:06.786Z,24.50
2022-09-05T20:43:10.851Z,24.40
2022-09-05T20:43:31.959Z,24.40
2022-09-05T20:43:53.696Z,24.40
2022-09-05T20:48:31.833Z,24.30
2022-09-05T20:54:14.298Z,24.30
2022-09-05T20:54:16.970Z,24.20
2022-09-05T20:55:38.293Z,24.20
2022-09-05T20:58:13.677Z,24.20
2022-09-05T21:01:20.149Z,24.10
2022-09-05T21:03:38.069Z,24.10
2022-09-05T21:06:22.066Z,24.10
2022-09-05T21:08:51.370Z,24.00
2022-09-05T21:11:35.548Z,24.00
2022-09-05T21:14:06.234Z,24.00
2022-09-05T21:16:38.734Z,24.00
2022-09-05T21:19:07.734Z,23.90
2022-09-05T21:21:36.873Z,23.90
2022-09-05T21:24:17.318Z,23.90
2022-09-05T21:26:48.609Z,23.90
2022-09-05T21:29:32.767Z,23.90
2022-09-05T21:32:04.578Z,23.80
2022-09-05T21:34:44.880Z,23.80
2022-09-05T21:37:15.456Z,23.80
2022-09-05T21:39:58.330Z,23.70
2022-09-05T21:45:59.982Z,23.80
2022-09-05T21:47:48.739Z,23.70
2022-09-05T21:48:08.291Z,23.70
2022-09-05T21:50:40.608Z,23.70
2022-09-05T21:54:13.120Z,23.60
2022-09-05T21:59:18.932Z,23.50
2022-09-05T21:59:20.625Z,23.60
2022-09-05T22:01:52.215Z,23.50
2022-09-05T22:04:22.365Z,23.50
2022-09-05T22:06:53.110Z,23.50
2022-09-05T22:09:22.926Z,23.50
2022-09-05T22:11:51.265Z,23.50
2022-09-05T22:14:20.591Z,23.40
2022-09-05T22:16:51.684Z,23.40
2022-09-05T22:19:37.491Z,23.40
2022-09-05T22:22:16.400Z,23.30
2022-09-05T22:24:51.683Z,23.30
2022-09-05T22:27:21.780Z,23.30
2022-09-05T22:29:51.180Z,23.30
2022-09-05T22:32:32.322Z,23.30
2022-09-05T22:35:27.214Z,23.20
2022-09-05T22:37:58.721Z,23.20
2022-09-05T22:40:28.655Z,23.10
2022-09-05T22:42:57.930Z,23.10
2022-09-05T22:45:26.350Z,23.10
2022-09-05T22:47:55.990Z,23.00
2022-09-05T22:50:24.958Z,23.00
2022-09-05T22:52:53.160Z,23.00
2022-09-05T22:55:21.499Z,23.00
2022-09-05T22:57:49.640Z,22.90
2022-09-05T23:00:18.179Z,22.90
2022-09-05T23:02:51.629Z,22.80
2022-09-05T23:05:22.214Z,22.80
2022-09-05T23:07:50.386Z,22.80
2022-09-05T23:10:19.210Z,22.80
2022-09-05T23:12:47.403Z,22.80
2022-09-05T23:15:15.677Z,22.70
2022-09-05T23:17:43.810Z,22.70
2022-09-05T23:20:12.119Z,22.70
2022-09-05T23:22:43.109Z,22.60
2022-09-05T23:25:11.843Z,22.60
2022-09-05T23:27:40.036Z,22.60
2022-09-05T23:30:09.906Z,22.50
2022-09-05T23:32:38.507Z,22.50
2022-09-05T23:35:07.322Z,22.50
2022-09-05T23:37:35.432Z,22.50
2022-09-05T23:40:05.968Z,22.50
2022-09-05T23:42:34.538Z,22.40
2022-09-05T23:45:02.723Z,22.40
2022-09-05T23:47:30.856Z,22.40
2022-09-05T23:49:59.036Z,22.30
2022-09-05T23:52:27.136Z,22.30
2022-09-05T23:54:55.207Z,22.30
2022-09-05T23:57:25.994Z,22.30
2022-09-05T23:59:54.135Z,22.20
